Siasconset, MA (02564)

8:01 AM EDT on March 29, 2017 (GMT -0400)
Wauwinet | | Change Station

Elev 20 ft 41.33 °N, 69.99 °W | Updated 14 seconds ago

Overcast
Overcast
39.5 °F
Feels Like 29 °F
N
22.0
Wind Variable Wind from North
Gusts 25.0 mph

Today
High -- | Low -- °F
--% Chance of Precip.
Yesterday
High -- | Low -- °F
Precip. -- in
Pressure 29.93 in
Visibility 10.0 miles
Clouds Mostly Cloudy 900 ft
Mostly Cloudy 1500 ft
Overcast 2100 ft
Windchill 29 °F
Dew Point 38 °F
Humidity 95%
Rainfall 0.17 in
Snow Depth Not available.
6:27 AM 7:02 PM
Waxing Crescent, 3% visible
METAR KACK 291153Z 36019G25KT 10SM BKN009 BKN015 OVC021 04/03 A2992 RMK AO2 SLP133 60007 70043 T00440028 10050 20039 51034
Pressure 29.93 in
Visibility 10.0 miles
Clouds Mostly Cloudy 900 ft
Mostly Cloudy 1500 ft
Overcast 2100 ft
Windchill 29 °F
Dew Point 38 °F
Humidity 95%
Rainfall 0.17 in
Snow Depth Not available.
6:27 AM 7:02 PM
Waxing Crescent, 3% visible
METAR KACK 291153Z 36019G25KT 10SM BKN009 BKN015 OVC021 04/03 A2992 RMK AO2 SLP133 60007 70043 T00440028 10050 20039 51034

Get Severe Weather Alerts

Thanks for signing up!

Be on the lookout for a verification email in your inbox.

You'll start receiving the daily forecast at 8 AM.

×

10-Day Weather Forecast

Almanac

Astronomy

Mar. 29, 2017 Rise Set
Actual Time
Civil Twilight
Nautical Twilight
Astronomical Twilight
Moon
Length of Visible Light
Length of Day
Tomorrow will be .
, % of the Moon is Illuminated

Today's Extremes

State Highs State Lows

Community

WunderPhotos

Upload Photos

1,962,540 photos uploaded!

WunderBlog® & News

Nearby

Air Quality

  Air Quality AQ Index Pollutant
Not available.

Snow Depth

Station Depth Elevation

Earthquake Activity

City Distance Mag. Time & Date
Minimum magnitude displayed is 2.5.

Earthquake Activity

City Distance Mag. Time & Date
Minimum magnitude displayed is 2.5.

Coastal Water Temperatures

Place Temperature

Stations

Nearby Weather Stations

Station Location Temp. Windchill Dew Point Humidity Wind Precip. Elev Updated Type
                   

Watches & Warnings

There are currently no watches in effect.